createdAt,value
2018-12-12T00:01:09.604Z,7.53
2018-12-12T00:03:37.776Z,8.90
2018-12-12T00:06:05.960Z,8.33
2018-12-12T00:08:34.302Z,8.00
2018-12-12T00:11:02.571Z,8.30
2018-12-12T00:13:30.835Z,8.13
2018-12-12T00:15:59.199Z,8.20
2018-12-12T00:18:27.440Z,8.07
2018-12-12T00:20:55.636Z,7.67
2018-12-12T00:23:23.916Z,7.93
2018-12-12T00:25:52.064Z,8.43
2018-12-12T00:28:20.180Z,8.43
2018-12-12T00:30:48.407Z,8.20
2018-12-12T00:33:16.859Z,8.00
2018-12-12T00:35:45.081Z,8.60
2018-12-12T00:38:13.207Z,7.90
2018-12-12T00:40:41.463Z,8.10
2018-12-12T00:43:09.825Z,8.37
2018-12-12T00:45:38.128Z,8.33
2018-12-12T00:48:08.187Z,8.97
2018-12-12T00:50:36.405Z,8.63
2018-12-12T00:53:04.533Z,9.50
2018-12-12T00:55:32.688Z,8.70
2018-12-12T00:58:01.236Z,9.17
2018-12-12T01:00:29.384Z,10.13
2018-12-12T01:02:57.661Z,8.30
2018-12-12T01:05:25.845Z,8.30
2018-12-12T01:07:54.043Z,8.47
2018-12-12T01:10:22.248Z,7.93
2018-12-12T01:12:50.380Z,9.13
2018-12-12T01:15:18.635Z,8.87
2018-12-12T01:17:46.773Z,7.90
2018-12-12T01:20:15.617Z,7.83
2018-12-12T01:22:43.807Z,8.00
2018-12-12T01:25:12.340Z,7.77
2018-12-12T01:27:40.483Z,7.40
2018-12-12T01:30:08.772Z,8.10
2018-12-12T01:32:36.884Z,8.87
2018-12-12T01:35:05.596Z,8.37
2018-12-12T01:37:33.762Z,9.30
2018-12-12T01:40:01.919Z,8.17
2018-12-12T01:42:30.062Z,8.87
2018-12-12T01:44:58.267Z,8.73
2018-12-12T01:47:26.491Z,7.80
2018-12-12T01:49:54.661Z,7.57
2018-12-12T01:52:22.788Z,7.70
2018-12-12T01:54:54.033Z,6.73
2018-12-12T01:57:22.205Z,6.67
2018-12-12T01:59:50.380Z,5.77
2018-12-12T02:02:18.511Z,6.20
2018-12-12T02:04:46.636Z,5.87
2018-12-12T02:07:15.173Z,6.40
2018-12-12T02:09:43.322Z,6.70
2018-12-12T02:12:11.453Z,7.60
2018-12-12T02:14:39.629Z,7.67
2018-12-12T02:17:07.763Z,7.37
2018-12-12T02:19:36.085Z,7.40
2018-12-12T02:22:04.321Z,7.97
2018-12-12T02:24:32.520Z,8.33
2018-12-12T02:27:00.668Z,8.60
2018-12-12T02:29:29.184Z,9.60
2018-12-12T02:31:57.356Z,8.00
2018-12-12T02:34:25.504Z,7.70
2018-12-12T02:36:53.687Z,7.40
2018-12-12T02:39:21.935Z,7.43
2018-12-12T02:41:50.119Z,9.07
2018-12-12T02:44:18.289Z,8.73
2018-12-12T02:46:46.632Z,8.23
2018-12-12T02:49:14.755Z,11.67
2018-12-12T02:51:42.889Z,13.00
2018-12-12T02:54:11.349Z,12.93
2018-12-12T02:56:39.491Z,12.93
2018-12-12T02:59:07.637Z,13.33
2018-12-12T03:01:35.868Z,12.03
2018-12-12T03:04:04.927Z,11.33
2018-12-12T03:06:33.080Z,10.57
2018-12-12T03:09:01.304Z,9.50
2018-12-12T03:11:29.568Z,9.03
2018-12-12T03:13:57.745Z,8.37
2018-12-12T03:16:26.022Z,8.10
2018-12-12T03:18:54.234Z,8.17
2018-12-12T03:21:22.591Z,8.27
2018-12-12T03:23:50.731Z,7.40
2018-12-12T03:26:18.930Z,7.77
2018-12-12T03:28:47.138Z,7.23
2018-12-12T03:31:15.385Z,7.63
2018-12-12T03:33:43.579Z,8.03
2018-12-12T03:36:11.732Z,7.70
2018-12-12T03:38:39.980Z,7.63
2018-12-12T03:41:08.144Z,7.43
2018-12-12T03:43:36.423Z,7.93
2018-12-12T03:46:04.642Z,7.63
2018-12-12T03:48:32.816Z,8.33
2018-12-12T03:51:00.957Z,8.37
2018-12-12T03:53:29.181Z,8.57
2018-12-12T03:55:57.352Z,8.60
2018-12-12T03:58:25.541Z,9.30
2018-12-12T04:00:53.689Z,9.27
2018-12-12T04:03:21.869Z,8.47
2018-12-12T04:05:50.028Z,8.63
2018-12-12T04:08:18.156Z,9.13
2018-12-12T04:10:46.331Z,9.60
2018-12-12T04:13:14.540Z,9.47
2018-12-12T04:15:42.707Z,9.40
2018-12-12T04:18:10.942Z,9.87
2018-12-12T04:20:39.076Z,9.90
2018-12-12T04:23:07.244Z,9.67
2018-12-12T04:25:35.381Z,9.23
2018-12-12T04:28:03.561Z,10.00
2018-12-12T04:30:31.749Z,9.10
2018-12-12T04:32:59.994Z,9.80
2018-12-12T04:35:28.151Z,10.53
2018-12-12T04:37:56.308Z,9.33
2018-12-12T04:40:24.435Z,10.23
2018-12-12T04:42:52.600Z,10.67
2018-12-12T04:45:20.785Z,10.00
2018-12-12T04:47:50.890Z,10.30
2018-12-12T04:50:19.160Z,10.07
2018-12-12T04:52:47.296Z,10.60
2018-12-12T04:55:15.469Z,9.90
2018-12-12T04:57:44.855Z,9.63
2018-12-12T05:00:13.299Z,9.83
2018-12-12T05:02:41.809Z,10.60
2018-12-12T05:05:10.035Z,10.67
2018-12-12T05:07:38.452Z,9.63
2018-12-12T05:10:06.868Z,10.63
2018-12-12T05:12:38.170Z,10.37
2018-12-12T05:15:06.445Z,10.80
2018-12-12T05:17:34.752Z,10.13
2018-12-12T05:20:02.983Z,10.03
2018-12-12T05:22:31.256Z,9.43
2018-12-12T05:24:59.437Z,10.87
2018-12-12T05:27:27.666Z,9.90
2018-12-12T05:29:55.832Z,10.77
2018-12-12T05:32:24.062Z,10.40
2018-12-12T05:34:52.182Z,10.37
2018-12-12T05:37:20.335Z,10.70
2018-12-12T05:39:48.508Z,11.07
2018-12-12T05:42:16.756Z,11.27
2018-12-12T05:44:44.898Z,10.40
2018-12-12T05:47:13.104Z,10.33
2018-12-12T05:49:41.309Z,10.20
2018-12-12T05:52:09.463Z,10.30
2018-12-12T05:54:37.597Z,9.93
2018-12-12T05:57:05.850Z,10.13
2018-12-12T05:59:34.091Z,10.00
2018-12-12T06:02:02.251Z,10.70
2018-12-12T06:04:30.408Z,9.80
2018-12-12T06:06:58.544Z,10.37
2018-12-12T06:09:26.828Z,10.30
2018-12-12T06:11:55.120Z,11.30
2018-12-12T06:14:23.406Z,10.50
2018-12-12T06:16:51.555Z,10.67
2018-12-12T06:19:20.059Z,10.33
2018-12-12T06:21:48.376Z,10.50
2018-12-12T06:24:16.573Z,10.37
2018-12-12T06:26:44.718Z,10.57
2018-12-12T06:29:12.841Z,10.40
2018-12-12T06:31:40.989Z,9.67
2018-12-12T06:34:09.163Z,9.77
2018-12-12T06:36:37.309Z,10.27
2018-12-12T06:39:07.637Z,10.63
2018-12-12T06:41:36.132Z,10.97
2018-12-12T06:44:04.708Z,11.23
2018-12-12T06:46:32.831Z,10.40
2018-12-12T06:49:01.095Z,11.43
2018-12-12T06:51:29.248Z,11.37
2018-12-12T06:53:57.600Z,10.50
2018-12-12T06:56:25.961Z,11.23
2018-12-12T06:58:54.167Z,11.13
2018-12-12T07:01:22.528Z,11.73
2018-12-12T07:03:50.736Z,11.50
2018-12-12T07:06:18.943Z,11.40
2018-12-12T07:08:47.072Z,11.33
2018-12-12T07:11:15.248Z,11.63
2018-12-12T07:13:43.381Z,10.63
2018-12-12T07:16:11.600Z,11.00
2018-12-12T07:18:39.719Z,10.67
2018-12-12T07:21:07.946Z,11.10
2018-12-12T07:23:36.060Z,10.77
2018-12-12T07:26:04.347Z,11.83
2018-12-12T07:28:32.474Z,11.47
2018-12-12T07:31:00.662Z,11.07
2018-12-12T07:33:28.889Z,11.63
2018-12-12T07:35:59.653Z,11.50
2018-12-12T07:38:27.291Z,12.13
2018-12-12T07:40:55.658Z,12.83
2018-12-12T07:43:23.764Z,12.47
2018-12-12T07:45:51.996Z,13.43
2018-12-12T07:48:20.142Z,11.87
2018-12-12T07:50:48.341Z,12.10
2018-12-12T07:53:16.467Z,12.93
2018-12-12T07:55:44.736Z,10.80
2018-12-12T07:58:12.883Z,12.50
2018-12-12T08:00:41.011Z,10.77
2018-12-12T08:03:09.145Z,12.47
2018-12-12T08:05:37.437Z,12.10
2018-12-12T08:08:05.676Z,11.97
2018-12-12T08:10:34.349Z,10.77
2018-12-12T08:13:02.546Z,9.77
2018-12-12T08:15:30.816Z,11.70
2018-12-12T08:17:59.031Z,10.73
2018-12-12T08:20:27.204Z,11.37
2018-12-12T08:22:56.256Z,11.53
2018-12-12T08:25:24.747Z,10.87
2018-12-12T08:27:52.896Z,10.83
2018-12-12T08:30:21.172Z,11.47
2018-12-12T08:32:49.316Z,11.93
2018-12-12T08:35:17.673Z,12.30
2018-12-12T08:37:45.909Z,11.20
2018-12-12T08:40:14.061Z,11.70
2018-12-12T08:42:42.172Z,11.53
2018-12-12T08:45:10.311Z,11.03
2018-12-12T08:47:38.505Z,11.27
2018-12-12T08:50:08.046Z,11.40
2018-12-12T08:52:36.244Z,11.47
2018-12-12T08:55:05.033Z,11.97
2018-12-12T08:57:33.218Z,12.17
2018-12-12T09:00:01.463Z,12.23
2018-12-12T09:02:29.755Z,11.57
2018-12-12T09:04:57.975Z,11.53
2018-12-12T09:07:26.111Z,11.27
2018-12-12T09:09:54.413Z,11.00
2018-12-12T09:12:22.638Z,10.30
2018-12-12T09:14:50.839Z,11.07
2018-12-12T09:17:19.059Z,10.87
2018-12-12T09:19:47.316Z,9.93
2018-12-12T09:22:15.496Z,11.00
2018-12-12T09:24:43.695Z,11.33
2018-12-12T09:27:11.845Z,11.17
2018-12-12T09:29:40.080Z,10.80
2018-12-12T09:32:08.212Z,10.17
2018-12-12T09:34:36.348Z,10.77
2018-12-12T09:37:04.539Z,10.20
2018-12-12T09:39:32.735Z,10.80
2018-12-12T09:42:00.979Z,9.53
2018-12-12T09:44:29.206Z,9.23
2018-12-12T09:46:57.511Z,9.03
2018-12-12T09:49:25.635Z,8.27
2018-12-12T09:51:53.759Z,9.57
2018-12-12T09:54:21.892Z,9.33
2018-12-12T09:56:50.076Z,8.87
2018-12-12T09:59:18.298Z,9.17
2018-12-12T10:01:46.416Z,9.13
2018-12-12T10:04:14.548Z,8.97
2018-12-12T10:06:42.695Z,9.37
2018-12-12T10:09:10.808Z,8.90
2018-12-12T10:11:38.935Z,8.80
2018-12-12T10:14:07.143Z,9.30
2018-12-12T10:16:35.383Z,9.30
2018-12-12T10:19:03.591Z,8.73
2018-12-12T10:21:31.726Z,8.93
2018-12-12T10:23:59.852Z,9.13
2018-12-12T10:26:27.989Z,8.50
2018-12-12T10:28:56.671Z,8.77
2018-12-12T10:31:24.961Z,9.13
2018-12-12T10:33:53.083Z,8.63
2018-12-12T10:36:21.217Z,9.07
2018-12-12T10:38:49.426Z,9.17
2018-12-12T10:41:17.572Z,8.90
2018-12-12T10:43:45.695Z,9.47
2018-12-12T10:46:13.811Z,8.60
2018-12-12T10:48:42.189Z,9.20
2018-12-12T10:51:10.396Z,9.10
2018-12-12T10:53:38.516Z,8.80
2018-12-12T10:56:06.718Z,8.83
2018-12-12T10:58:34.869Z,8.90
2018-12-12T11:01:08.600Z,8.90
2018-12-12T11:03:44.335Z,8.43
2018-12-12T11:06:12.904Z,9.27
2018-12-12T11:08:41.116Z,9.30
2018-12-12T11:11:09.356Z,9.70
2018-12-12T11:13:37.507Z,8.67
2018-12-12T11:16:05.980Z,8.80
2018-12-12T11:18:34.291Z,8.97
2018-12-12T11:21:02.416Z,9.17
2018-12-12T11:23:30.547Z,8.90
2018-12-12T11:25:58.685Z,9.40
2018-12-12T11:28:26.819Z,9.17
2018-12-12T11:30:55.148Z,8.93
2018-12-12T11:33:23.359Z,9.27
2018-12-12T11:35:51.521Z,9.00
2018-12-12T11:38:19.652Z,9.17
2018-12-12T11:40:47.957Z,8.43
2018-12-12T11:43:23.988Z,10.00
2018-12-12T11:45:52.224Z,9.53
2018-12-12T11:48:20.354Z,8.90
2018-12-12T11:50:48.477Z,9.33
2018-12-12T11:53:16.640Z,8.80
2018-12-12T11:55:44.894Z,8.53
2018-12-12T11:58:13.044Z,10.57
2018-12-12T12:00:41.261Z,11.50
2018-12-12T12:03:09.408Z,12.17
2018-12-12T12:05:37.527Z,11.07
2018-12-12T12:08:05.832Z,10.87
2018-12-12T12:10:34.020Z,11.30
2018-12-12T12:13:02.148Z,11.40
2018-12-12T12:15:30.266Z,11.80
2018-12-12T12:17:58.395Z,11.40
2018-12-12T12:20:26.515Z,11.53
2018-12-12T12:22:54.652Z,11.83
2018-12-12T12:25:22.847Z,11.87
2018-12-12T12:27:51.065Z,12.03
2018-12-12T12:30:19.196Z,12.50
2018-12-12T12:32:47.327Z,12.67
2018-12-12T12:35:15.575Z,12.63
2018-12-12T12:37:43.798Z,12.53
2018-12-12T12:40:12.005Z,12.80
2018-12-12T12:42:40.193Z,13.53
2018-12-12T12:45:08.552Z,13.73
2018-12-12T12:47:37.509Z,13.60
2018-12-12T12:50:06.141Z,13.30
2018-12-12T12:52:34.430Z,13.43
2018-12-12T12:55:02.624Z,13.63
2018-12-12T12:57:30.772Z,13.73
2018-12-12T12:59:58.881Z,14.27
2018-12-12T13:02:27.151Z,14.87
2018-12-12T13:04:55.304Z,15.43
2018-12-12T13:07:23.579Z,14.50
2018-12-12T13:09:51.777Z,13.93
2018-12-12T13:12:20.162Z,14.17
2018-12-12T13:14:48.539Z,14.77
2018-12-12T13:17:17.072Z,15.47
2018-12-12T13:19:45.310Z,14.03
2018-12-12T13:22:14.532Z,14.23
2018-12-12T13:24:42.745Z,14.00
2018-12-12T13:27:11.032Z,14.43
2018-12-12T13:29:39.164Z,13.27
2018-12-12T13:32:07.328Z,13.97
2018-12-12T13:34:35.449Z,13.40
2018-12-12T13:37:03.677Z,13.30
2018-12-12T13:39:31.942Z,12.93
2018-12-12T13:42:00.102Z,14.90
2018-12-12T13:44:28.356Z,15.07
2018-12-12T13:46:57.027Z,14.00
2018-12-12T13:49:25.840Z,14.03
2018-12-12T13:51:54.148Z,13.80
2018-12-12T13:54:22.356Z,14.90
2018-12-12T13:56:50.879Z,13.80
2018-12-12T13:59:19.149Z,14.17
2018-12-12T14:01:47.363Z,13.63
2018-12-12T14:04:15.511Z,14.20
2018-12-12T14:06:43.659Z,13.53
2018-12-12T14:09:12.195Z,13.03
2018-12-12T14:11:41.837Z,13.57
2018-12-12T14:14:10.166Z,14.27
2018-12-12T14:16:38.565Z,13.37
2018-12-12T14:19:06.784Z,14.33
2018-12-12T14:21:35.008Z,13.40
2018-12-12T14:24:03.315Z,12.90
2018-12-12T14:26:31.505Z,12.90
2018-12-12T14:29:00.480Z,13.43
2018-12-12T14:31:28.607Z,13.43
2018-12-12T14:33:56.729Z,13.93
2018-12-12T14:36:25.216Z,13.87
2018-12-12T14:38:53.606Z,14.20
2018-12-12T14:41:21.783Z,12.83
2018-12-12T14:43:50.510Z,12.47
2018-12-12T14:46:18.636Z,13.13
2018-12-12T14:48:46.751Z,12.63
2018-12-12T14:51:15.029Z,12.73
2018-12-12T14:53:43.331Z,12.33
2018-12-12T14:56:11.521Z,13.30
2018-12-12T14:58:39.739Z,13.43
2018-12-12T15:01:08.068Z,13.37
2018-12-12T15:03:36.302Z,13.43
2018-12-12T15:06:04.649Z,12.90
2018-12-12T15:08:32.904Z,13.63
2018-12-12T15:11:01.073Z,13.80
2018-12-12T15:13:29.351Z,14.70
2018-12-12T15:15:57.609Z,14.17
2018-12-12T15:18:25.832Z,14.50
2018-12-12T15:20:54.152Z,13.77
2018-12-12T15:23:22.312Z,13.37
2018-12-12T15:25:50.571Z,13.93
2018-12-12T15:28:18.765Z,14.17
2018-12-12T15:30:46.997Z,14.63
2018-12-12T15:33:15.242Z,14.53
2018-12-12T15:35:43.562Z,14.70
2018-12-12T15:38:11.807Z,15.00
2018-12-12T15:40:39.929Z,14.03
2018-12-12T15:43:08.269Z,14.03
2018-12-12T15:45:36.839Z,15.07
2018-12-12T15:48:05.120Z,14.47
2018-12-12T15:50:33.288Z,15.10
2018-12-12T15:53:01.452Z,15.33
2018-12-12T15:55:29.703Z,16.03
2018-12-12T15:57:57.929Z,15.63
2018-12-12T16:00:28.723Z,15.80
2018-12-12T16:02:57.433Z,15.27
2018-12-12T16:05:25.666Z,16.43
2018-12-12T16:07:53.784Z,15.73
2018-12-12T16:10:21.928Z,16.00
2018-12-12T16:12:50.187Z,15.63
2018-12-12T16:15:18.490Z,16.23
2018-12-12T16:17:46.839Z,14.53
2018-12-12T16:20:14.981Z,14.87
2018-12-12T16:22:43.203Z,16.67
2018-12-12T16:25:11.330Z,16.17
2018-12-12T16:27:39.568Z,15.17
2018-12-12T16:30:08.244Z,14.97
2018-12-12T16:32:36.366Z,14.77
2018-12-12T16:35:04.789Z,16.00
2018-12-12T16:37:32.972Z,15.57
2018-12-12T16:40:01.162Z,15.47
2018-12-12T16:42:29.339Z,16.20
2018-12-12T16:44:57.620Z,16.40
2018-12-12T16:47:25.760Z,14.77
2018-12-12T16:49:53.976Z,14.80
2018-12-12T16:52:22.169Z,15.40
2018-12-12T16:54:50.431Z,14.37
2018-12-12T16:57:18.660Z,15.40
2018-12-12T16:59:46.840Z,15.40
2018-12-12T17:02:15.153Z,14.40
2018-12-12T17:04:43.311Z,14.57
2018-12-12T17:07:11.492Z,14.37
2018-12-12T17:09:39.666Z,13.67
2018-12-12T17:12:08.011Z,14.03
2018-12-12T17:14:36.537Z,14.67
2018-12-12T17:17:04.806Z,14.07
2018-12-12T17:19:33.654Z,13.77
2018-12-12T17:22:02.073Z,13.90
2018-12-12T17:24:30.223Z,14.07
2018-12-12T17:26:58.508Z,14.53
2018-12-12T17:29:26.668Z,13.73
2018-12-12T17:31:54.829Z,14.53
2018-12-12T17:34:23.065Z,13.70
2018-12-12T17:36:51.241Z,14.00
2018-12-12T17:39:19.724Z,13.17
2018-12-12T17:41:47.959Z,14.70
2018-12-12T17:44:16.143Z,13.30
2018-12-12T17:46:44.299Z,14.03
2018-12-12T17:49:12.493Z,13.23
2018-12-12T17:51:41.316Z,13.53
2018-12-12T17:54:09.498Z,14.43
2018-12-12T17:56:37.705Z,14.80
2018-12-12T17:59:05.963Z,14.27
2018-12-12T18:01:34.245Z,14.70
2018-12-12T18:04:02.503Z,13.90
2018-12-12T18:06:30.691Z,13.20
2018-12-12T18:08:58.990Z,15.97
2018-12-12T18:11:27.326Z,14.30
2018-12-12T18:13:55.480Z,14.07
2018-12-12T18:16:23.756Z,12.63
2018-12-12T18:18:52.181Z,14.87
2018-12-12T18:21:20.390Z,15.00
2018-12-12T18:23:48.547Z,14.00
2018-12-12T18:26:16.925Z,13.90
2018-12-12T18:28:45.033Z,14.27
2018-12-12T18:31:14.251Z,15.60
2018-12-12T18:33:42.821Z,14.53
2018-12-12T18:36:11.080Z,13.67
2018-12-12T18:38:39.374Z,15.30
2018-12-12T18:41:07.599Z,15.23
2018-12-12T18:43:35.772Z,15.47
2018-12-12T18:46:04.058Z,17.00
2018-12-12T18:48:32.205Z,16.77
2018-12-12T18:51:00.436Z,15.37
2018-12-12T18:53:28.604Z,15.97
2018-12-12T18:55:56.753Z,15.00
2018-12-12T18:58:24.889Z,15.20
2018-12-12T19:00:53.174Z,14.70
2018-12-12T19:03:21.314Z,14.93
2018-12-12T19:05:49.520Z,13.80
2018-12-12T19:08:17.745Z,14.13
2018-12-12T19:10:46.145Z,13.73
2018-12-12T19:13:14.308Z,12.80
2018-12-12T19:15:44.620Z,12.83
2018-12-12T19:18:12.929Z,12.10
2018-12-12T19:20:41.088Z,13.67
2018-12-12T19:23:09.369Z,11.60
2018-12-12T19:25:39.085Z,11.93
2018-12-12T19:28:28.132Z,10.97
2018-12-12T19:30:56.444Z,12.30
2018-12-12T19:33:25.085Z,11.73
2018-12-12T19:35:53.212Z,13.13
2018-12-12T19:38:21.492Z,13.47
2018-12-12T19:40:50.151Z,13.47
2018-12-12T19:43:18.581Z,12.60
2018-12-12T19:45:46.887Z,11.87
2018-12-12T19:48:15.072Z,14.40
2018-12-12T19:50:43.367Z,13.70
2018-12-12T19:53:11.488Z,13.87
2018-12-12T19:55:39.658Z,13.27
2018-12-12T19:58:07.920Z,14.63
2018-12-12T20:00:36.645Z,13.47
2018-12-12T20:03:04.941Z,14.00
2018-12-12T20:05:33.671Z,12.77
2018-12-12T20:08:01.867Z,11.07
2018-12-12T20:10:30.185Z,11.67
2018-12-12T20:12:58.913Z,10.73
2018-12-12T20:15:32.255Z,10.53
2018-12-12T20:18:00.815Z,9.50
2018-12-12T20:20:28.956Z,9.07
2018-12-12T20:22:57.359Z,8.50
2018-12-12T20:25:25.613Z,8.23
2018-12-12T20:27:53.807Z,7.77
2018-12-12T20:30:22.097Z,7.33
2018-12-12T20:32:50.223Z,7.53
2018-12-12T20:35:18.397Z,6.97
2018-12-12T20:37:46.565Z,7.07
2018-12-12T20:40:14.815Z,6.93
2018-12-12T20:42:42.972Z,6.73
2018-12-12T20:45:11.290Z,6.30
2018-12-12T20:47:39.782Z,7.43
2018-12-12T20:50:08.857Z,7.43
2018-12-12T20:52:37.005Z,6.63
2018-12-12T20:55:05.469Z,6.40
2018-12-12T20:57:33.698Z,6.77
2018-12-12T21:00:01.927Z,6.20
2018-12-12T21:02:30.091Z,6.13
2018-12-12T21:04:58.495Z,5.87
2018-12-12T21:07:26.651Z,6.17
2018-12-12T21:09:54.898Z,6.53
2018-12-12T21:12:23.216Z,5.73
2018-12-12T21:14:51.495Z,6.13
2018-12-12T21:17:19.797Z,5.87
2018-12-12T21:19:47.908Z,6.00
2018-12-12T21:22:16.233Z,5.77
2018-12-12T21:24:44.359Z,5.53
2018-12-12T21:27:12.666Z,5.40
2018-12-12T21:29:41.232Z,5.43
2018-12-12T21:32:09.407Z,5.57
2018-12-12T21:34:37.554Z,5.57
2018-12-12T21:37:05.704Z,5.90
2018-12-12T21:39:33.901Z,5.87
2018-12-12T21:42:02.081Z,5.77
2018-12-12T21:44:30.267Z,5.77
2018-12-12T21:46:58.486Z,5.97
2018-12-12T21:49:26.708Z,5.73
2018-12-12T21:51:54.913Z,5.80
2018-12-12T21:54:23.065Z,5.50
2018-12-12T21:56:51.380Z,5.77
2018-12-12T21:59:19.574Z,5.60
2018-12-12T22:01:47.757Z,5.60
2018-12-12T22:07:46.774Z,5.90
2018-12-12T22:10:15.102Z,5.90
2018-12-12T22:12:43.325Z,5.63
2018-12-12T22:15:11.501Z,6.00
2018-12-12T22:17:39.701Z,5.77
2018-12-12T22:20:07.987Z,5.53
2018-12-12T22:22:36.247Z,5.60
2018-12-12T22:25:04.729Z,5.73
2018-12-12T22:27:32.949Z,5.70
2018-12-12T22:30:01.129Z,5.60
2018-12-12T22:32:29.310Z,6.17
2018-12-12T22:34:57.476Z,6.43
2018-12-12T22:37:25.708Z,6.07
2018-12-12T22:39:53.900Z,5.80
2018-12-12T22:42:22.088Z,6.47
2018-12-12T22:44:50.227Z,6.73
2018-12-12T22:47:18.443Z,6.57
2018-12-12T22:49:46.680Z,7.43
2018-12-12T22:52:14.853Z,7.17
2018-12-12T22:54:43.168Z,7.07
2018-12-12T22:57:11.363Z,7.17
2018-12-12T22:59:39.544Z,6.77
2018-12-12T23:02:07.762Z,7.27
2018-12-12T23:04:35.912Z,7.90
2018-12-12T23:07:04.130Z,7.50
2018-12-12T23:09:32.350Z,7.20
2018-12-12T23:12:00.643Z,7.57
2018-12-12T23:14:28.820Z,7.57
2018-12-12T23:16:57.187Z,8.37
2018-12-12T23:19:25.391Z,8.00
2018-12-12T23:21:53.617Z,8.20
2018-12-12T23:24:25.066Z,8.03
2018-12-12T23:26:52.046Z,7.87
2018-12-12T23:29:20.220Z,8.13
2018-12-12T23:31:48.389Z,7.67
2018-12-12T23:34:16.547Z,8.50
2018-12-12T23:36:44.697Z,8.97
2018-12-12T23:39:12.927Z,8.37
2018-12-12T23:41:41.080Z,8.43
2018-12-12T23:44:09.248Z,8.93
2018-12-12T23:46:37.425Z,8.33
2018-12-12T23:49:05.673Z,8.13
2018-12-12T23:51:33.816Z,8.40
2018-12-12T23:54:01.991Z,8.77
2018-12-12T23:56:30.141Z,8.57
2018-12-12T23:58:58.301Z,8.80
